Time;durP1;ratioP1;P1;durP2;ratioP2;P2;SDS_P1;SDS_P2;PMS_P1;PMS_P2;Temp;Humidity;BMP_temperature;BMP_pressure;BME280_temperature;BME280_humidity;BME280_pressure;Samples;Min_cycle;Max_cycle;Signal;HPM_P1;HPM_P2
2023/01/09 00:00:42;;;;;;;2.45;1.42;;;6.90;99.90;;;;;;5005359;28;20471;-65
2023/01/09 00:03:07;;;;;;;3.40;1.85;;;6.90;99.90;;;;;;4987266;28;20046;-65
2023/01/09 00:05:33;;;;;;;4.00;1.73;;;7.00;99.90;;;;;;5005101;28;20064;-65
2023/01/09 00:07:59;;;;;;;5.63;1.73;;;7.00;99.90;;;;;;5005235;28;20096;-64
2023/01/09 00:10:24;;;;;;;5.65;2.00;;;7.00;99.90;;;;;;5005395;28;20037;-65
2023/01/09 00:12:50;;;;;;;5.22;2.20;;;6.90;99.90;;;;;;5006352;28;20104;-63
2023/01/09 00:15:16;;;;;;;6.38;2.22;;;6.90;99.90;;;;;;5005022;28;20045;-65
2023/01/09 00:17:42;;;;;;;5.43;2.20;;;6.90;99.90;;;;;;5006494;28;20069;-63
2023/01/09 00:20:09;;;;;;;5.22;2.17;;;7.00;99.90;;;;;;5007413;28;20045;-65
2023/01/09 00:22:36;;;;;;;3.58;2.00;;;7.00;99.90;;;;;;5014701;28;20046;-66
2023/01/09 00:25:03;;;;;;;3.85;2.13;;;7.00;99.90;;;;;;5006308;28;20081;-65
2023/01/09 00:27:33;;;;;;;3.13;1.70;;;6.90;99.90;;;;;;5005250;28;20038;-65
2023/01/09 00:29:59;;;;;;;4.15;2.10;;;6.80;99.90;;;;;;5003860;28;20127;-65
2023/01/09 00:32:25;;;;;;;3.47;1.98;;;7.00;99.90;;;;;;5005870;28;20096;-65
2023/01/09 00:34:51;;;;;;;3.75;1.70;;;6.80;99.90;;;;;;5005389;28;20124;-65
2023/01/09 00:37:17;;;;;;;2.83;1.30;;;7.00;99.90;;;;;;5005951;28;20255;-65
2023/01/09 00:39:42;;;;;;;4.85;1.98;;;7.00;99.90;;;;;;5005063;28;20046;-65
2023/01/09 00:42:13;;;;;;;3.60;1.70;;;7.00;99.90;;;;;;5005969;28;20532;-65
2023/01/09 00:45:01;;;;;;;5.20;1.77;;;6.90;99.90;;;;;;5004454;28;20129;-65
2023/01/09 00:47:32;;;;;;;4.65;2.15;;;7.00;99.90;;;;;;5005215;28;20129;-64
2023/01/09 00:50:06;;;;;;;5.18;2.50;;;6.90;99.90;;;;;;5004864;28;20577;-66
2023/01/09 00:52:34;;;;;;;3.35;1.65;;;6.90;99.90;;;;;;5005339;28;20050;-65
2023/01/09 00:55:01;;;;;;;5.57;2.30;;;7.00;99.90;;;;;;5005281;28;20129;-65
2023/01/09 00:57:26;;;;;;;5.57;2.15;;;7.20;99.90;;;;;;5005233;28;20073;-65
2023/01/09 00:59:52;;;;;;;5.40;2.40;;;7.20;99.90;;;;;;5002695;28;20041;-64
2023/01/09 01:02:18;;;;;;;4.70;1.90;;;7.00;99.90;;;;;;5005018;28;20100;-63
2023/01/09 01:07:37;;;;;;;4.93;2.53;;;7.10;99.90;;;;;;5004967;28;20478;-62
2023/01/09 01:10:09;;;;;;;;;;;7.10;99.90;;;;;;5005078;28;20057;-62
2023/01/09 01:12:35;;;;;;;5.78;2.80;;;6.80;99.90;;;;;;5005190;28;19975;-63
2023/01/09 01:15:02;;;;;;;5.95;2.92;;;7.00;99.90;;;;;;5004326;28;20049;-63
2023/01/09 01:17:27;;;;;;;6.07;3.22;;;6.50;99.90;;;;;;5004329;28;20044;-63
2023/01/09 01:19:53;;;;;;;7.95;3.38;;;6.50;99.90;;;;;;5005089;28;20724;-63
2023/01/09 01:22:19;;;;;;;7.32;3.90;;;6.60;99.90;;;;;;5015670;28;20034;-64
2023/01/09 01:24:44;;;;;;;7.82;3.85;;;6.50;99.90;;;;;;5003997;28;20049;-63
2023/01/09 01:27:10;;;;;;;6.90;4.22;;;6.50;99.90;;;;;;5004233;28;20050;-63
2023/01/09 01:29:36;;;;;;;6.28;3.88;;;6.90;99.90;;;;;;5004301;28;20075;-63
2023/01/09 01:32:01;;;;;;;8.20;4.35;;;6.60;99.90;;;;;;5005091;28;20034;-63
2023/01/09 01:34:28;;;;;;;9.00;4.47;;;6.40;99.90;;;;;;5019281;28;20402;-63
2023/01/09 01:36:53;;;;;;;7.15;4.07;;;6.30;99.90;;;;;;5005164;28;20445;-63
2023/01/09 01:39:19;;;;;;;6.60;3.55;;;6.80;99.90;;;;;;5004741;28;20060;-63
2023/01/09 01:41:45;;;;;;;4.95;2.60;;;6.40;99.90;;;;;;5004589;28;20306;-63
2023/01/09 01:44:48;;;;;;;4.22;2.20;;;6.90;99.90;;;;;;5003570;28;20046;-63
2023/01/09 01:47:17;;;;;;;3.53;1.67;;;6.70;99.90;;;;;;5003519;28;20061;-63
2023/01/09 01:49:43;;;;;;;3.25;1.40;;;6.30;99.90;;;;;;5004551;28;20512;-63
2023/01/09 01:52:09;;;;;;;3.47;1.63;;;6.60;99.90;;;;;;5004612;28;20386;-63
2023/01/09 01:54:34;;;;;;;2.38;1.10;;;6.40;99.90;;;;;;5003924;28;20050;-63
2023/01/09 01:57:02;;;;;;;3.40;1.15;;;6.50;99.90;;;;;;5004824;28;20139;-64
2023/01/09 01:59:40;;;;;;;2.15;1.02;;;6.20;99.90;;;;;;5003561;28;20124;-63
2023/01/09 02:02:08;;;;;;;1.63;1.02;;;6.50;99.90;;;;;;5003573;28;20052;-63
2023/01/09 02:04:39;;;;;;;4.07;1.35;;;6.20;99.90;;;;;;5004303;28;20054;-64
2023/01/09 02:07:08;;;;;;;1.63;0.98;;;6.30;99.90;;;;;;5004142;28;20156;-64
2023/01/09 02:09:36;;;;;;;3.13;1.33;;;6.50;99.90;;;;;;5004813;28;20107;-63
2023/01/09 02:12:18;;;;;;;3.42;1.35;;;6.00;99.90;;;;;;5067191;22;20078;-63
2023/01/09 02:14:45;;;;;;;2.13;1.20;;;6.50;99.90;;;;;;4977692;28;20038;-63
2023/01/09 02:17:22;;;;;;;2.72;1.40;;;6.20;99.90;;;;;;4993399;28;20050;-64
2023/01/09 02:20:22;;;;;;;3.72;1.35;;;6.10;99.90;;;;;;5001675;28;20056;-64
2023/01/09 02:23:24;;;;;;;3.28;1.40;;;6.40;99.90;;;;;;4973793;28;20062;-64
2023/01/09 02:26:11;;;;;;;2.60;1.50;;;6.30;99.90;;;;;;4964072;28;20050;-64
2023/01/09 02:28:45;;;;;;;3.78;1.38;;;6.10;99.90;;;;;;4963601;28;20398;-64
2023/01/09 02:31:48;;;;;;;4.25;1.60;;;6.10;99.90;;;;;;4965178;28;20900;-64
2023/01/09 02:34:13;;;;;;;2.80;1.30;;;6.00;99.90;;;;;;4964827;28;20093;-63
2023/01/09 02:36:56;;;;;;;2.78;1.42;;;6.50;99.90;;;;;;4964906;28;20100;-64
2023/01/09 02:39:41;;;;;;;3.05;1.17;;;6.00;99.90;;;;;;4964903;28;20046;-64
2023/01/09 02:42:09;;;;;;;2.00;1.10;;;6.30;99.90;;;;;;4964944;28;20175;-63
2023/01/09 02:44:35;;;;;;;4.00;1.23;;;6.40;99.90;;;;;;4963493;28;20529;-64
2023/01/09 02:47:03;;;;;;;3.13;1.20;;;6.30;99.90;;;;;;4964716;28;20128;-63
2023/01/09 02:49:34;;;;;;;2.58;1.30;;;6.40;99.90;;;;;;4985736;28;20056;-64
2023/01/09 02:52:44;;;;;;;2.20;1.10;;;6.20;99.90;;;;;;5003098;28;20053;-64
2023/01/09 02:55:37;;;;;;;2.33;1.20;;;6.50;99.90;;;;;;4988556;28;20058;-63
2023/01/09 02:58:33;;;;;;;4.65;1.80;;;6.30;99.90;;;;;;4987780;28;20101;-64
2023/01/09 03:01:18;;;;;;;4.25;1.67;;;6.40;99.90;;;;;;4988205;28;20038;-64
2023/01/09 03:04:02;;;;;;;4.50;1.52;;;6.50;99.90;;;;;;4985767;28;20125;-63
2023/01/09 03:06:57;;;;;;;3.92;1.70;;;6.20;99.90;;;;;;4988407;28;20043;-64
2023/01/09 03:09:27;;;;;;;4.60;2.20;;;6.60;99.90;;;;;;4979782;28;20551;-63
2023/01/09 03:11:58;;;;;;;5.10;2.35;;;6.20;99.90;;;;;;4987936;28;20050;-64
2023/01/09 03:14:25;;;;;;;4.30;2.35;;;6.20;99.90;;;;;;4986327;28;20374;-64
2023/01/09 03:16:58;;;;;;;5.05;2.30;;;6.50;99.90;;;;;;4987870;28;20046;-62
2023/01/09 03:19:28;;;;;;;5.88;2.08;;;6.00;99.90;;;;;;4986829;28;20074;-63
2023/01/09 03:21:54;;;;;;;6.55;2.40;;;6.50;99.90;;;;;;4979442;28;20034;-64
2023/01/09 03:24:20;;;;;;;7.13;2.83;;;6.40;99.90;;;;;;4968444;28;20085;-64
2023/01/09 03:26:46;;;;;;;5.25;2.60;;;6.20;99.90;;;;;;4968423;28;20078;-64
2023/01/09 03:29:12;;;;;;;3.80;2.33;;;6.30;99.90;;;;;;4966682;28;20059;-63
2023/01/09 03:31:38;;;;;;;8.30;2.97;;;6.30;99.90;;;;;;4982293;28;20095;-63
2023/01/09 03:34:03;;;;;;;6.10;3.00;;;6.30;99.90;;;;;;4982497;28;20727;-64
2023/01/09 03:36:29;;;;;;;8.65;3.60;;;6.30;99.90;;;;;;4966936;28;20042;-64
2023/01/09 03:38:55;;;;;;;7.03;3.03;;;6.30;99.90;;;;;;4966854;28;20054;-64
2023/01/09 03:41:20;;;;;;;8.63;3.20;;;5.90;99.90;;;;;;4967560;28;20043;-64
2023/01/09 03:43:47;;;;;;;7.15;3.13;;;5.90;99.90;;;;;;4981501;28;20098;-63
2023/01/09 03:46:14;;;;;;;8.68;3.08;;;5.90;99.90;;;;;;4966556;28;20149;-64
2023/01/09 03:48:40;;;;;;;6.15;3.33;;;6.10;99.90;;;;;;4965994;28;20046;-64
2023/01/09 03:51:06;;;;;;;8.00;3.47;;;6.20;99.90;;;;;;4981810;28;20129;-63
2023/01/09 03:53:31;;;;;;;6.30;3.00;;;6.00;99.90;;;;;;4967091;28;20319;-64
2023/01/09 03:55:57;;;;;;;4.22;2.55;;;6.20;99.90;;;;;;4966864;28;20053;-64
2023/01/09 03:58:24;;;;;;;7.35;3.30;;;6.10;99.90;;;;;;4966763;28;20430;-64
2023/01/09 04:00:51;;;;;;;7.85;3.47;;;6.10;99.90;;;;;;4967152;28;20039;-61
2023/01/09 04:03:19;;;;;;;11.38;3.70;;;5.70;99.90;;;;;;4966179;28;20397;-64
2023/01/09 04:05:47;;;;;;;7.40;3.20;;;5.60;99.90;;;;;;4967295;28;20610;-65
2023/01/09 04:08:13;;;;;;;9.18;4.00;;;5.60;99.90;;;;;;4965654;28;20059;-63
2023/01/09 04:10:38;;;;;;;8.93;4.05;;;5.80;99.90;;;;;;4966203;28;20059;-63
2023/01/09 04:13:04;;;;;;;9.60;3.85;;;5.50;99.90;;;;;;4966709;28;20047;-64
2023/01/09 04:15:30;;;;;;;7.55;3.58;;;5.40;99.90;;;;;;4966366;28;20053;-63
2023/01/09 04:17:55;;;;;;;10.98;4.38;;;5.70;99.90;;;;;;4967112;28;20046;-64
2023/01/09 04:20:21;;;;;;;9.07;4.40;;;5.50;99.90;;;;;;4968733;28;20074;-63
2023/01/09 04:22:46;;;;;;;8.73;4.30;;;5.40;99.90;;;;;;4983617;28;20046;-62
2023/01/09 04:25:12;;;;;;;8.73;4.15;;;5.80;99.90;;;;;;4986389;28;20481;-64
2023/01/09 04:27:38;;;;;;;7.88;4.03;;;5.30;99.90;;;;;;4985779;28;20051;-64
2023/01/09 04:30:04;;;;;;;8.27;3.70;;;5.50;99.90;;;;;;4985678;28;20521;-62
2023/01/09 04:32:30;;;;;;;9.15;4.90;;;5.30;99.90;;;;;;4985506;28;20370;-63
2023/01/09 04:34:56;;;;;;;8.35;3.63;;;5.90;99.90;;;;;;4985478;28;20046;-64
2023/01/09 04:37:23;;;;;;;9.07;3.90;;;5.70;99.90;;;;;;4986911;28;20595;-63
2023/01/09 04:39:50;;;;;;;8.98;4.03;;;5.50;99.90;;;;;;4986849;28;20085;-63
2023/01/09 04:42:15;;;;;;;6.20;3.13;;;5.70;99.90;;;;;;4985525;28;20057;-63
2023/01/09 04:44:41;;;;;;;8.13;3.80;;;5.40;99.90;;;;;;4984552;28;20129;-64
2023/01/09 04:47:07;;;;;;;10.25;4.80;;;5.60;99.90;;;;;;4986089;28;20065;-63
2023/01/09 04:49:32;;;;;;;7.05;3.75;;;5.60;99.90;;;;;;4986585;28;20117;-64
2023/01/09 04:51:58;;;;;;;10.07;3.83;;;5.30;99.90;;;;;;4986513;28;20465;-64
2023/01/09 04:54:24;;;;;;;7.88;4.38;;;5.70;99.90;;;;;;4985902;28;20058;-64
2023/01/09 04:56:49;;;;;;;9.52;4.05;;;5.60;99.90;;;;;;4985749;28;20080;-63
2023/01/09 04:59:15;;;;;;;13.02;4.68;;;5.50;99.90;;;;;;4985039;28;20050;-64
2023/01/09 05:01:41;;;;;;;11.25;4.82;;;5.50;99.90;;;;;;4985203;28;20038;-65
2023/01/09 05:04:07;;;;;;;7.10;4.43;;;5.20;99.90;;;;;;4985547;28;20043;-63
2023/01/09 05:06:33;;;;;;;7.25;4.18;;;5.10;99.90;;;;;;4984782;28;20082;-64
2023/01/09 05:09:00;;;;;;;9.55;4.70;;;5.20;99.90;;;;;;4984982;28;20046;-64
2023/01/09 05:11:26;;;;;;;8.15;5.32;;;5.50;99.90;;;;;;4985479;28;20049;-64
2023/01/09 05:13:52;;;;;;;10.10;5.97;;;5.30;99.90;;;;;;4984473;28;20504;-62
2023/01/09 05:16:18;;;;;;;8.82;5.75;;;5.00;99.90;;;;;;4984445;28;20073;-63
2023/01/09 05:18:44;;;;;;;11.48;6.93;;;5.10;99.90;;;;;;4984748;28;20077;-64
2023/01/09 05:21:10;;;;;;;11.40;6.47;;;5.20;99.90;;;;;;4977492;28;20572;-62
2023/01/09 05:23:35;;;;;;;9.93;6.63;;;5.50;99.90;;;;;;4970503;28;20049;-63
2023/01/09 05:26:03;;;;;;;13.70;8.18;;;5.40;99.90;;;;;;4965065;28;20118;-63
2023/01/09 05:28:29;;;;;;;12.18;8.73;;;5.50;99.90;;;;;;4964264;28;20592;-64
2023/01/09 05:30:55;;;;;;;16.75;9.38;;;5.00;99.90;;;;;;4965528;28;20410;-64
2023/01/09 05:33:21;;;;;;;10.95;7.05;;;5.30;99.90;;;;;;4980640;28;20062;-63
2023/01/09 05:35:46;;;;;;;13.10;9.38;;;5.00;99.90;;;;;;4965329;28;20061;-63
2023/01/09 05:38:12;;;;;;;11.20;7.45;;;5.00;99.90;;;;;;4966108;28;20034;-64
2023/01/09 05:40:38;;;;;;;13.00;8.85;;;5.40;99.90;;;;;;4965268;28;20556;-64
2023/01/09 05:43:03;;;;;;;13.18;9.27;;;5.40;99.90;;;;;;4964753;28;20121;-64
2023/01/09 05:45:29;;;;;;;13.55;9.07;;;5.30;99.90;;;;;;4964769;28;20050;-63
2023/01/09 05:47:55;;;;;;;15.68;10.00;;;5.10;99.90;;;;;;4965632;28;20097;-63
2023/01/09 05:50:20;;;;;;;21.27;11.45;;;5.00;99.90;;;;;;4964952;28;20597;-64
2023/01/09 05:52:46;;;;;;;16.58;11.25;;;5.00;99.90;;;;;;4963076;28;20081;-64
2023/01/09 05:55:12;;;;;;;16.05;10.50;;;5.00;99.90;;;;;;4965044;28;20047;-66
2023/01/09 05:57:38;;;;;;;14.15;10.63;;;5.50;99.90;;;;;;4964750;28;20050;-63
2023/01/09 06:00:04;;;;;;;12.38;7.90;;;5.40;99.90;;;;;;4963401;28;20074;-63
2023/01/09 06:02:30;;;;;;;21.40;12.90;;;5.40;99.90;;;;;;4963419;28;20785;-64
2023/01/09 06:04:56;;;;;;;19.30;11.93;;;5.20;99.90;;;;;;4964325;28;20053;-64
2023/01/09 06:07:21;;;;;;;17.25;10.57;;;5.40;99.90;;;;;;4965075;28;20038;-64
2023/01/09 06:09:47;;;;;;;22.55;13.77;;;5.00;99.90;;;;;;4964579;28;20090;-64
2023/01/09 06:12:13;;;;;;;16.73;11.27;;;5.50;99.90;;;;;;4964742;28;20047;-64
2023/01/09 06:14:38;;;;;;;22.77;15.27;;;5.30;99.90;;;;;;4963541;28;20054;-64
2023/01/09 06:17:04;;;;;;;19.75;13.65;;;5.10;99.90;;;;;;4965388;28;20034;-64
2023/01/09 06:19:29;;;;;;;22.88;14.30;;;5.50;99.90;;;;;;4964420;28;20042;-64
2023/01/09 06:21:55;;;;;;;20.33;13.73;;;5.30;99.90;;;;;;4975703;28;20042;-63
2023/01/09 06:24:21;;;;;;;17.33;12.57;;;5.30;99.90;;;;;;4964874;28;20042;-64
2023/01/09 06:26:46;;;;;;;22.10;15.05;;;5.10;99.90;;;;;;4964863;28;20426;-64
2023/01/09 06:29:12;;;;;;;24.52;14.52;;;5.40;99.90;;;;;;4967238;28;20047;-64
2023/01/09 06:31:38;;;;;;;21.95;14.48;;;5.20;99.90;;;;;;4968720;28;20043;-64
2023/01/09 06:34:03;;;;;;;20.05;14.57;;;5.40;99.90;;;;;;4984308;28;20129;-64
2023/01/09 06:36:29;;;;;;;17.55;13.30;;;5.60;99.90;;;;;;4967625;28;20058;-64
2023/01/09 06:38:55;;;;;;;20.08;14.55;;;5.40;99.90;;;;;;4968832;28;20050;-64
2023/01/09 06:41:20;;;;;;;24.60;15.25;;;5.30;99.90;;;;;;4967951;28;20047;-64
2023/01/09 06:43:46;;;;;;;23.10;15.27;;;5.60;99.90;;;;;;4967056;28;20078;-64
2023/01/09 06:46:12;;;;;;;20.98;14.63;;;5.50;99.90;;;;;;4967315;28;20054;-64
2023/01/09 06:48:37;;;;;;;16.45;11.50;;;5.70;99.90;;;;;;4968068;28;20038;-64
2023/01/09 06:51:03;;;;;;;18.05;12.20;;;5.20;99.90;;;;;;4968604;28;20062;-64
2023/01/09 06:53:29;;;;;;;19.30;11.77;;;5.60;99.90;;;;;;4967406;28;20045;-63
2023/01/09 06:55:54;;;;;;;21.00;13.20;;;5.30;99.90;;;;;;4968169;28;20094;-63
2023/01/09 06:58:20;;;;;;;20.58;12.70;;;5.50;99.90;;;;;;4967041;28;20047;-64
2023/01/09 07:00:48;;;;;;;12.98;7.57;;;5.30;99.90;;;;;;4967542;28;20516;-64
2023/01/09 07:03:18;;;;;;;20.42;13.60;;;5.50;99.90;;;;;;4967527;28;20051;-64
2023/01/09 07:05:45;;;;;;;21.15;13.85;;;5.30;99.90;;;;;;4968098;28;20043;-64
2023/01/09 07:08:10;;;;;;;19.02;11.98;;;5.60;99.90;;;;;;4967155;28;20039;-63
2023/01/09 07:10:36;;;;;;;17.23;12.82;;;5.40;99.90;;;;;;4967041;28;20109;-64
2023/01/09 07:13:02;;;;;;;20.70;12.30;;;5.60;99.90;;;;;;4967284;28;20142;-63
2023/01/09 07:15:27;;;;;;;18.58;12.48;;;5.60;99.90;;;;;;4967743;28;20047;-63
2023/01/09 07:17:53;;;;;;;22.45;13.30;;;5.30;99.90;;;;;;4966098;28;20074;-64
2023/01/09 07:20:19;;;;;;;21.05;12.82;;;5.20;99.90;;;;;;4970409;28;20041;-64
2023/01/09 07:22:45;;;;;;;18.80;13.45;;;5.30;99.90;;;;;;4976659;28;20086;-64
2023/01/09 07:25:11;;;;;;;15.68;10.18;;;5.50;99.90;;;;;;4981954;28;20082;-63
2023/01/09 07:27:37;;;;;;;17.60;12.75;;;5.50;99.90;;;;;;4967629;28;20512;-64
2023/01/09 07:30:04;;;;;;;18.67;11.82;;;5.10;99.90;;;;;;4966723;28;20082;-64
2023/01/09 07:32:30;;;;;;;15.90;9.13;;;5.20;99.90;;;;;;4967848;28;20057;-64
2023/01/09 07:34:56;;;;;;;15.93;8.93;;;5.40;99.90;;;;;;4967256;28;20433;-63
2023/01/09 07:37:22;;;;;;;16.50;10.93;;;5.50;99.90;;;;;;4967249;28;20054;-64
2023/01/09 07:39:48;;;;;;;15.50;10.95;;;5.60;99.90;;;;;;4967537;28;20063;-65
2023/01/09 07:42:14;;;;;;;16.77;9.05;;;5.20;99.90;;;;;;4966871;28;20046;-63
2023/01/09 07:44:39;;;;;;;13.93;7.35;;;5.10;99.90;;;;;;4966613;28;20130;-65
2023/01/09 07:47:05;;;;;;;11.43;7.95;;;5.10;99.90;;;;;;4967684;28;20138;-63
2023/01/09 07:49:31;;;;;;;13.85;8.35;;;5.30;99.90;;;;;;4967196;28;20058;-65
2023/01/09 07:51:57;;;;;;;12.52;6.70;;;5.20;99.90;;;;;;4967095;28;20067;-65
2023/01/09 07:54:23;;;;;;;13.60;9.68;;;5.20;99.90;;;;;;4967011;28;20051;-64
2023/01/09 07:56:48;;;;;;;12.27;8.05;;;5.20;99.90;;;;;;4966754;28;20498;-63
2023/01/09 07:59:14;;;;;;;13.20;7.90;;;5.10;99.90;;;;;;4966163;28;20047;-65
2023/01/09 08:01:40;;;;;;;14.30;8.68;;;5.10;99.90;;;;;;4966872;28;20042;-65
2023/01/09 08:04:06;;;;;;;10.95;6.45;;;5.10;99.90;;;;;;4982372;28;20047;-64
2023/01/09 08:06:31;;;;;;;15.32;9.10;;;5.30;99.90;;;;;;4967414;28;20043;-63
2023/01/09 08:08:57;;;;;;;13.57;8.50;;;5.60;99.90;;;;;;4966788;28;20051;-64
2023/01/09 08:11:24;;;;;;;13.73;8.10;;;5.10;99.90;;;;;;4966800;28;20054;-63
2023/01/09 08:13:49;;;;;;;13.07;8.02;;;5.10;99.90;;;;;;4966397;28;20042;-64
2023/01/09 08:16:15;;;;;;;13.75;8.50;;;5.20;99.90;;;;;;4980985;28;20043;-64
2023/01/09 08:18:41;;;;;;;12.13;8.02;;;5.60;99.90;;;;;;4966839;28;20046;-64
2023/01/09 08:21:07;;;;;;;10.55;7.05;;;5.50;99.90;;;;;;4972114;28;20042;-63
2023/01/09 08:23:33;;;;;;;12.05;8.40;;;5.20;99.90;;;;;;4972073;28;20046;-64
2023/01/09 08:25:58;;;;;;;11.48;7.18;;;5.60;99.90;;;;;;4966533;28;20039;-64
2023/01/09 08:28:24;;;;;;;9.70;6.95;;;5.60;99.90;;;;;;4966357;28;20049;-63
2023/01/09 08:30:50;;;;;;;15.75;7.68;;;5.50;99.90;;;;;;4966936;28;20054;-63
2023/01/09 08:33:16;;;;;;;10.55;5.78;;;5.20;99.90;;;;;;4967138;28;20043;-64
2023/01/09 08:35:44;;;;;;;10.90;5.25;;;5.30;99.90;;;;;;4967326;28;20054;-64
2023/01/09 08:38:10;;;;;;;5.95;3.80;;;5.30;99.90;;;;;;4967740;28;20047;-63
2023/01/09 08:40:36;;;;;;;10.63;5.70;;;5.40;99.90;;;;;;4966497;28;20121;-63
2023/01/09 08:47:04;;;;;;;10.95;5.43;;;5.60;99.90;;;;;;4965075;28;20142;-64
2023/01/09 08:48:44;;;;;;;9.25;5.20;;;5.20;99.90;;;;;;4966248;28;20047;-65
2023/01/09 08:51:10;;;;;;;11.50;5.68;;;5.20;99.90;;;;;;4965877;28;20046;-64
2023/01/09 08:53:36;;;;;;;11.40;6.00;;;5.30;99.90;;;;;;4965407;28;20050;-66
2023/01/09 08:56:02;;;;;;;8.18;5.65;;;5.50;99.90;;;;;;4966596;28;20413;-65
2023/01/09 08:58:29;;;;;;;10.35;5.18;;;5.30;99.90;;;;;;4964972;28;20137;-63
2023/01/09 09:00:55;;;;;;;9.48;5.22;;;5.20;99.90;;;;;;4965801;28;20039;-64
2023/01/09 09:03:21;;;;;;;10.05;4.90;;;5.30;99.90;;;;;;4980384;28;20054;-62
2023/01/09 09:05:46;;;;;;;8.32;4.93;;;5.50;99.90;;;;;;4966442;28;20493;-63
2023/01/09 09:08:12;;;;;;;11.13;5.57;;;5.60;99.90;;;;;;4966007;28;20074;-64
2023/01/09 09:10:38;;;;;;;9.70;5.20;;;5.60;99.90;;;;;;4965634;28;20149;-64
2023/01/09 09:13:04;;;;;;;12.80;5.55;;;5.60;99.90;;;;;;4965379;28;20051;-65
2023/01/09 09:15:29;;;;;;;10.45;5.07;;;5.30;99.90;;;;;;4965879;28;20051;-64
2023/01/09 09:17:58;;;;;;;9.25;4.90;;;5.70;99.90;;;;;;4963623;28;20057;-63
2023/01/09 09:20:27;;;;;;;8.77;5.10;;;5.30;99.90;;;;;;4968166;28;20371;-65
2023/01/09 09:22:53;;;;;;;11.20;4.97;;;5.50;99.90;;;;;;4974141;28;20047;-65
2023/01/09 09:25:19;;;;;;;8.00;4.82;;;5.60;99.90;;;;;;4964819;28;20038;-64
2023/01/09 09:27:45;;;;;;;9.27;4.63;;;5.70;99.90;;;;;;4965075;28;20058;-67
2023/01/09 09:30:13;;;;;;;9.93;4.80;;;5.80;99.90;;;;;;4965540;28;20074;-65
2023/01/09 09:32:39;;;;;;;10.43;5.13;;;5.40;99.90;;;;;;4965816;28;20048;-62
2023/01/09 09:35:05;;;;;;;11.55;5.03;;;5.80;99.90;;;;;;4965181;28;20112;-62
2023/01/09 09:37:31;;;;;;;9.20;4.68;;;5.80;99.90;;;;;;4965440;28;20081;-62
2023/01/09 09:39:57;;;;;;;8.90;4.35;;;5.90;99.90;;;;;;4980703;28;20489;-61
2023/01/09 09:45:12;;;;;;;8.65;4.10;;;6.00;99.90;;;;;;4965699;28;20506;-59
2023/01/09 09:47:56;;;;;;;9.02;4.30;;;6.00;99.90;;;;;;4965375;28;20050;-63
2023/01/09 09:50:41;;;;;;;9.80;4.22;;;5.80;99.90;;;;;;4966140;28;20047;-62
2023/01/09 09:53:29;;;;;;;8.77;4.15;;;5.60;99.90;;;;;;4964867;28;20043;-63
2023/01/09 09:55:56;;;;;;;11.02;3.90;;;5.90;99.90;;;;;;4965680;28;20133;-63
2023/01/09 09:58:33;;;;;;;9.00;4.28;;;5.70;99.90;;;;;;4964356;28;20051;-63
2023/01/09 10:00:59;;;;;;;8.88;4.57;;;5.80;99.90;;;;;;4965641;28;20190;-63
2023/01/09 10:03:30;;;;;;;9.02;4.22;;;5.80;99.90;;;;;;4965100;28;20047;-63
2023/01/09 10:05:57;;;;;;;7.88;3.80;;;6.10;99.90;;;;;;4965117;28;20054;-64
2023/01/09 10:09:11;;;;;;;11.00;4.68;;;5.80;99.90;;;;;;4964755;28;20043;-64
2023/01/09 10:12:00;;;;;;;11.68;4.35;;;5.80;99.90;;;;;;4975581;28;20063;-62
2023/01/09 10:14:26;;;;;;;14.55;4.22;;;6.20;99.90;;;;;;4978665;28;20081;-58
2023/01/09 10:17:24;;;;;;;12.43;4.70;;;6.20;99.90;;;;;;4965249;28;20409;-59
2023/01/09 10:19:58;;;;;;;9.02;4.47;;;6.20;99.90;;;;;;4964523;28;20097;-58
2023/01/09 10:23:00;;;;;;;7.10;4.15;;;6.10;99.90;;;;;;4973868;28;20046;-59
2023/01/09 10:25:44;;;;;;;9.38;4.53;;;6.30;99.90;;;;;;4984130;28;20105;-59
2023/01/09 10:28:44;;;;;;;7.27;4.03;;;6.20;99.90;;;;;;4983017;28;20050;-59
2023/01/09 10:31:10;;;;;;;12.85;4.95;;;6.00;99.90;;;;;;4983534;28;20042;-60
2023/01/09 10:34:07;;;;;;;9.85;4.65;;;6.50;99.90;;;;;;4983766;28;20327;-59
2023/01/09 10:36:52;;;;;;;7.20;4.15;;;6.20;99.90;;;;;;4983134;28;20073;-59
2023/01/09 10:39:29;;;;;;;10.65;4.35;;;6.00;99.90;;;;;;4966865;28;20085;-59
2023/01/09 10:42:14;;;;;;;10.48;5.15;;;6.10;99.90;;;;;;4984069;28;20046;-59
2023/01/09 10:45:21;;;;;;;8.73;4.05;;;6.50;99.90;;;;;;4984516;28;20042;-58
2023/01/09 10:47:47;;;;;;;10.40;4.32;;;6.50;99.90;;;;;;4983704;28;20059;-58
2023/01/09 10:50:19;;;;;;;8.27;4.70;;;6.60;99.90;;;;;;4983878;28;20046;-58
2023/01/09 10:52:46;;;;;;;9.88;4.60;;;6.20;99.90;;;;;;4984605;28;20050;-59
2023/01/09 10:55:22;;;;;;;8.25;4.22;;;6.70;99.90;;;;;;4984485;28;20057;-59
2023/01/09 10:57:55;;;;;;;7.78;3.97;;;6.70;99.90;;;;;;4982385;28;20097;-59
2023/01/09 11:00:23;;;;;;;10.33;4.43;;;6.70;99.90;;;;;;4983334;28;20046;-59
2023/01/09 11:02:50;;;;;;;10.40;4.38;;;6.70;99.90;;;;;;4984848;28;20459;-59
2023/01/09 11:05:29;;;;;;;7.95;4.32;;;6.70;99.90;;;;;;4984684;28;20054;-59
2023/01/09 11:08:40;;;;;;;10.60;4.88;;;6.30;99.90;;;;;;4983200;28;20057;-58
2023/01/09 11:11:07;;;;;;;7.88;4.40;;;6.70;99.90;;;;;;4983702;28;20137;-59
2023/01/09 11:13:35;;;;;;;10.20;4.43;;;6.70;99.90;;;;;;4983765;28;20058;-59
2023/01/09 11:16:22;;;;;;;10.02;4.57;;;6.80;99.90;;;;;;4985925;28;20046;-59
2023/01/09 11:18:57;;;;;;;9.88;4.32;;;6.30;99.90;;;;;;4987612;28;20057;-59
2023/01/09 11:21:39;;;;;;;11.70;4.82;;;6.40;99.90;;;;;;4980688;28;20113;-59
2023/01/09 11:24:20;;;;;;;9.55;4.38;;;7.00;99.90;;;;;;4969154;28;20118;-59
2023/01/09 11:26:51;;;;;;;10.32;4.65;;;6.40;99.90;;;;;;4967736;28;20053;-59
2023/01/09 11:29:24;;;;;;;9.80;4.32;;;6.40;99.90;;;;;;4967113;28;20039;-61
2023/01/09 11:31:58;;;;;;;9.32;4.50;;;6.60;99.90;;;;;;4967207;28;20437;-59
2023/01/09 11:34:29;;;;;;;10.13;3.95;;;6.80;99.90;;;;;;4967864;28;20046;-59
2023/01/09 11:37:06;;;;;;;8.48;4.57;;;6.60;99.90;;;;;;4967261;28;20109;-58
2023/01/09 11:39:34;;;;;;;9.23;4.35;;;6.70;99.90;;;;;;4967177;28;20144;-58
2023/01/09 11:42:05;;;;;;;9.90;4.05;;;6.80;99.90;;;;;;4967999;28;20046;-59
2023/01/09 11:44:31;;;;;;;11.15;4.72;;;6.40;99.90;;;;;;4967740;28;20050;-60
2023/01/09 11:46:58;;;;;;;8.48;4.38;;;6.50;99.90;;;;;;4967675;28;20049;-59
2023/01/09 11:49:27;;;;;;;8.27;4.90;;;6.80;99.90;;;;;;4965894;28;20173;-59
2023/01/09 11:52:15;;;;;;;10.43;5.07;;;6.50;99.90;;;;;;4966877;28;20046;-62
2023/01/09 11:54:54;;;;;;;10.95;5.55;;;6.30;99.90;;;;;;4967415;28;20054;-59
2023/01/09 11:57:22;;;;;;;8.43;4.93;;;6.80;99.90;;;;;;4964489;28;20117;-59
2023/01/09 11:59:48;;;;;;;10.27;5.07;;;6.60;99.90;;;;;;4967039;28;20145;-59
2023/01/09 12:02:29;;;;;;;11.95;5.75;;;6.80;99.90;;;;;;4967013;28;20098;-58
2023/01/09 12:05:07;;;;;;;14.07;6.07;;;6.40;99.90;;;;;;4966029;28;20049;-61
2023/01/09 12:07:35;;;;;;;10.07;5.60;;;6.20;99.90;;;;;;4966990;28;20047;-59
2023/01/09 12:10:29;;;;;;;8.82;5.38;;;6.60;99.90;;;;;;4966286;28;20075;-59
2023/01/09 12:13:13;;;;;;;11.07;5.65;;;6.70;99.90;;;;;;4966441;28;20549;-58
2023/01/09 12:16:04;;;;;;;11.02;5.72;;;6.70;99.90;;;;;;4966595;28;20043;-59
2023/01/09 12:18:52;;;;;;;8.93;5.10;;;6.70;99.90;;;;;;4966487;28;20059;-59
2023/01/09 12:21:31;;;;;;;10.63;5.53;;;6.80;99.90;;;;;;4973066;28;20080;-59
2023/01/09 12:24:18;;;;;;;12.35;6.00;;;6.30;99.90;;;;;;5001962;28;20396;-59
2023/01/09 12:27:05;;;;;;;9.55;5.38;;;6.40;99.90;;;;;;5006010;28;21234;-58
2023/01/09 12:29:58;;;;;;;10.23;5.40;;;6.60;99.90;;;;;;5005472;28;20499;-58
2023/01/09 12:32:28;;;;;;;8.15;5.75;;;6.30;99.90;;;;;;5005084;28;20723;-58
2023/01/09 12:35:14;;;;;;;11.10;5.90;;;6.40;99.90;;;;;;5005521;28;20050;-59
2023/01/09 12:37:52;;;;;;;10.93;6.72;;;6.70;99.90;;;;;;5005555;28;20038;-59
2023/01/09 12:40:43;;;;;;;12.68;6.18;;;6.20;99.90;;;;;;5005818;28;20054;-58
2023/01/09 12:43:54;;;;;;;12.60;7.13;;;6.60;99.90;;;;;;4986542;28;20056;-58
2023/01/09 12:46:25;;;;;;;11.65;6.68;;;6.70;99.90;;;;;;5003837;28;20058;-59
2023/01/09 12:49:18;;;;;;;12.18;7.28;;;6.80;99.90;;;;;;5004878;28;20049;-58
2023/01/09 12:52:00;;;;;;;10.70;7.30;;;6.70;99.90;;;;;;5003654;28;20045;-59
2023/01/09 12:54:58;;;;;;;11.57;7.28;;;6.60;99.90;;;;;;5005437;28;20125;-59
2023/01/09 12:57:31;;;;;;;10.38;6.75;;;6.80;99.90;;;;;;5004414;28;20582;-58
2023/01/09 13:00:06;;;;;;;10.40;6.45;;;6.70;99.90;;;;;;5004953;28;20046;-59
2023/01/09 13:02:39;;;;;;;9.95;7.00;;;6.90;99.90;;;;;;5004831;28;20104;-59
2023/01/09 13:05:20;;;;;;;9.85;6.50;;;6.70;99.90;;;;;;5004429;28;20061;-59
2023/01/09 13:07:48;;;;;;;10.82;6.40;;;7.00;99.90;;;;;;5005074;28;20053;-59
2023/01/09 13:10:32;;;;;;;12.57;6.57;;;6.50;99.90;;;;;;5004860;28;20125;-59
2023/01/09 13:13:07;;;;;;;11.27;6.30;;;6.70;99.90;;;;;;5002920;28;20058;-59
2023/01/09 13:15:41;;;;;;;9.48;5.70;;;6.70;99.90;;;;;;5004766;28;20100;-59
2023/01/09 13:18:40;;;;;;;9.32;6.57;;;6.60;99.90;;;;;;5004413;28;20049;-59